Aviation Digital Data Service (ADDS)

Output produced by METARs form (0714 UTC 26 March 2017)
found at http://aviationweather.gov/adds/metars/
 
KSSI 260540Z 2606/2706 13005KT P6SM SCT120 BKN250 
     FM261300 12005KT P6SM SCT050 BKN150 
     FM261600 12011KT P6SM FEW040 BKN150 
     FM270000 10006KT P6SM BKN120